Time;durP1;ratioP1;P1;durP2;ratioP2;P2;SDS_P1;SDS_P2;PMS_P1;PMS_P2;Temp;Humidity;BMP_temperature;BMP_pressure;BME280_temperature;BME280_humidity;BME280_pressure;Samples;Min_cycle;Max_cycle;Signal;HPM_P1;HPM_P2
2022/05/10 00:02:04;;;;;;;16.05;7.15;;;;;;;;;;5013220;28;93080;-73
2022/05/10 00:04:30;;;;;;;19.02;7.28;;;;;;;;;;5012714;28;92420;-73
2022/05/10 00:06:56;;;;;;;19.73;7.20;;;;;;;;;;5009602;28;95037;-73
2022/05/10 00:09:27;;;;;;;25.90;7.13;;;;;;;;;;5014145;28;93226;-73
2022/05/10 00:11:54;;;;;;;11.27;7.28;;;;;;;;;;5013534;28;92469;-73
2022/05/10 00:14:20;;;;;;;11.82;7.13;;;;;;;;;;5015484;28;93174;-72
2022/05/10 00:16:51;;;;;;;20.17;7.82;;;;;;;;;;5012040;28;93750;-73
2022/05/10 00:19:18;;;;;;;14.10;7.38;;;;;;;;;;5011898;28;93259;-73
2022/05/10 00:21:45;;;;;;;15.18;7.55;;;;;;;;;;5011773;28;92484;-73
2022/05/10 00:24:11;;;;;;;14.68;7.05;;;;;;;;;;5012711;28;93166;-73
2022/05/10 00:26:37;;;;;;;23.42;7.13;;;;;;;;;;5012529;28;92450;-72
2022/05/10 00:29:04;;;;;;;22.08;7.85;;;;;;;;;;5010827;28;93298;-73
2022/05/10 00:31:30;;;;;;;20.65;7.72;;;;;;;;;;5013151;28;94908;-72
2022/05/10 00:33:57;;;;;;;15.95;8.50;;;;;;;;;;5013847;28;96202;-73
2022/05/10 00:36:24;;;;;;;17.02;9.18;;;;;;;;;;5013343;28;92705;-73
2022/05/10 00:38:50;;;;;;;16.10;8.35;;;;;;;;;;5012104;28;92959;-73
2022/05/10 00:41:30;;;;;;;16.52;9.20;;;;;;;;;;5013211;28;93621;-73
2022/05/10 00:44:09;;;;;;;22.70;8.45;;;;;;;;;;4980713;28;92379;-72
2022/05/10 00:46:37;;;;;;;18.45;8.45;;;;;;;;;;5009706;28;93283;-73
2022/05/10 00:49:07;;;;;;;20.27;7.85;;;;;;;;;;5011260;28;95579;-73
2022/05/10 00:51:39;;;;;;;17.23;8.43;;;;;;;;;;4994231;28;94069;-73
2022/05/10 00:54:32;;;;;;;13.98;9.18;;;;;;;;;;5010792;28;93133;-73
2022/05/10 00:57:01;;;;;;;22.33;9.95;;;;;;;;;;5011867;28;95627;-73
2022/05/10 00:59:33;;;;;;;19.38;9.77;;;;;;;;;;5013137;28;95703;-73
2022/05/10 01:02:07;;;;;;;17.58;9.88;;;;;;;;;;5010215;28;93729;-72
2022/05/10 01:04:34;;;;;;;21.98;9.75;;;;;;;;;;5012670;28;92444;-73
2022/05/10 01:07:03;;;;;;;21.33;10.48;;;;;;;;;;5010622;28;92936;-73
2022/05/10 01:09:41;;;;;;;17.43;10.10;;;;;;;;;;5009747;28;93650;-73
2022/05/10 01:12:26;;;;;;;32.03;10.68;;;;;;;;;;5001987;28;92459;-73
2022/05/10 01:14:56;;;;;;;20.55;10.25;;;;;;;;;;5007664;28;93195;-72
2022/05/10 01:17:22;;;;;;;28.77;11.23;;;;;;;;;;5009508;28;93956;-73
2022/05/10 01:19:48;;;;;;;25.35;11.15;;;;;;;;;;5013196;28;93817;-72
2022/05/10 01:22:15;;;;;;;15.00;10.05;;;;;;;;;;5008780;28;95900;-73
2022/05/10 01:24:49;;;;;;;16.35;10.25;;;;;;;;;;5012104;28;92463;-73
2022/05/10 01:27:21;;;;;;;18.05;10.25;;;;;;;;;;5011155;28;93061;-73
2022/05/10 01:29:53;;;;;;;19.60;10.60;;;;;;;;;;4993639;28;93604;-72
2022/05/10 01:35:08;;;;;;;19.10;10.65;;;;;;;;;;5010671;28;93181;-73
2022/05/10 01:37:36;;;;;;;19.00;11.27;;;;;;;;;;4993410;28;92900;-72
2022/05/10 01:40:29;;;;;;;18.98;11.57;;;;;;;;;;5012730;28;91669;-72
2022/05/10 01:42:58;;;;;;;18.83;11.85;;;;;;;;;;4993031;28;92878;-73
2022/05/10 01:45:29;;;;;;;21.45;11.15;;;;;;;;;;5010255;28;92694;-73
2022/05/10 01:47:57;;;;;;;24.80;11.80;;;;;;;;;;5009296;28;94979;-73
2022/05/10 01:50:38;;;;;;;25.60;11.30;;;;;;;;;;5009356;28;93634;-72
2022/05/10 01:53:07;;;;;;;19.83;11.18;;;;;;;;;;5012129;28;92446;-73
2022/05/10 01:55:35;;;;;;;27.20;12.73;;;;;;;;;;5015860;28;93354;-72
2022/05/10 01:58:03;;;;;;;20.13;12.77;;;;;;;;;;5014513;28;94521;-72
2022/05/10 02:00:30;;;;;;;27.00;13.18;;;;;;;;;;5015237;28;92420;-72
2022/05/10 02:02:59;;;;;;;22.08;11.85;;;;;;;;;;5013132;28;93324;-73
2022/05/10 02:05:39;;;;;;;25.38;13.05;;;;;;;;;;5019187;28;93726;-72
2022/05/10 02:08:09;;;;;;;30.60;14.82;;;;;;;;;;5014700;28;92594;-73
2022/05/10 02:10:40;;;;;;;24.27;14.13;;;;;;;;;;5014823;28;93287;-73
2022/05/10 02:13:09;;;;;;;22.20;12.32;;;;;;;;;;5011873;28;96546;-73
2022/05/10 02:15:38;;;;;;;18.38;12.68;;;;;;;;;;5013606;28;95427;-72
2022/05/10 02:18:09;;;;;;;24.20;13.20;;;;;;;;;;5014521;28;94375;-73
2022/05/10 02:20:45;;;;;;;29.13;13.20;;;;;;;;;;5012200;28;94191;-72
2022/05/10 02:23:11;;;;;;;25.02;13.90;;;;;;;;;;5015100;28;94618;-72
2022/05/10 02:25:38;;;;;;;25.88;13.80;;;;;;;;;;5014309;28;93077;-73
2022/05/10 02:28:08;;;;;;;23.80;13.80;;;;;;;;;;5005353;28;92464;-73
2022/05/10 02:30:35;;;;;;;24.83;14.57;;;;;;;;;;5014054;28;92715;-73
2022/05/10 02:33:06;;;;;;;19.52;12.52;;;;;;;;;;5013468;28;93725;-73
2022/05/10 02:35:47;;;;;;;22.60;13.52;;;;;;;;;;5013323;28;93355;-73
2022/05/10 02:38:32;;;;;;;22.02;13.50;;;;;;;;;;5011826;28;96135;-72
2022/05/10 02:41:00;;;;;;;25.05;14.65;;;;;;;;;;5015309;28;92433;-72
2022/05/10 02:43:31;;;;;;;23.50;13.90;;;;;;;;;;5014296;28;94036;-73
2022/05/10 02:45:57;;;;;;;22.85;14.00;;;;;;;;;;5015385;28;93587;-72
2022/05/10 02:48:26;;;;;;;25.38;14.43;;;;;;;;;;5016711;28;92940;-73
2022/05/10 02:50:53;;;;;;;27.83;14.95;;;;;;;;;;5014041;28;95003;-72
2022/05/10 02:53:19;;;;;;;27.25;14.93;;;;;;;;;;5013300;28;92534;-72
2022/05/10 02:55:49;;;;;;;24.15;15.57;;;;;;;;;;5015330;28;93061;-72
2022/05/10 02:58:18;;;;;;;30.13;15.43;;;;;;;;;;5013259;28;93486;-72
2022/05/10 03:00:45;;;;;;;30.90;15.30;;;;;;;;;;5014092;28;92653;-73
2022/05/10 03:03:15;;;;;;;28.20;15.40;;;;;;;;;;5011905;28;94800;-72
2022/05/10 03:05:41;;;;;;;26.70;15.18;;;;;;;;;;5011811;28;93167;-72
2022/05/10 03:08:07;;;;;;;28.20;16.63;;;;;;;;;;5013506;28;92445;-72
2022/05/10 03:10:34;;;;;;;33.35;16.33;;;;;;;;;;5017105;28;94035;-71
2022/05/10 03:13:00;;;;;;;38.53;16.95;;;;;;;;;;5013084;28;93384;-73
2022/05/10 03:15:26;;;;;;;32.25;16.92;;;;;;;;;;5012557;28;93161;-72
2022/05/10 03:17:52;;;;;;;31.67;16.98;;;;;;;;;;5012299;28;93883;-72
2022/05/10 03:20:19;;;;;;;36.00;17.75;;;;;;;;;;5009584;28;91755;-72
2022/05/10 03:22:48;;;;;;;42.20;19.13;;;;;;;;;;5012377;28;92808;-72
2022/05/10 03:25:15;;;;;;;42.42;18.85;;;;;;;;;;5013732;28;93300;-73
2022/05/10 03:27:41;;;;;;;27.33;18.02;;;;;;;;;;5011500;28;94929;-73
2022/05/10 03:30:08;;;;;;;30.55;17.80;;;;;;;;;;5013275;28;96764;-73
2022/05/10 03:32:34;;;;;;;35.40;18.88;;;;;;;;;;4996935;28;93486;-73
2022/05/10 03:35:00;;;;;;;34.78;19.70;;;;;;;;;;5013458;28;94036;-73
2022/05/10 03:37:29;;;;;;;42.22;18.77;;;;;;;;;;4995087;28;94128;-73
2022/05/10 03:39:55;;;;;;;31.92;18.38;;;;;;;;;;4992559;28;94234;-73
2022/05/10 03:42:22;;;;;;;38.92;19.02;;;;;;;;;;5012321;28;93509;-72
2022/05/10 03:44:52;;;;;;;33.85;18.25;;;;;;;;;;5013925;28;94338;-72
2022/05/10 03:47:19;;;;;;;44.87;20.03;;;;;;;;;;4995330;28;92509;-73
2022/05/10 03:49:46;;;;;;;34.60;20.00;;;;;;;;;;5009282;28;93068;-73
2022/05/10 03:52:12;;;;;;;30.67;19.08;;;;;;;;;;5008372;28;96013;-72
2022/05/10 03:54:39;;;;;;;34.92;19.13;;;;;;;;;;5014834;28;92541;-72
2022/05/10 03:57:05;;;;;;;33.67;20.15;;;;;;;;;;4999872;28;93507;-72
2022/05/10 03:59:32;;;;;;;38.45;19.95;;;;;;;;;;5011579;28;92622;-72
2022/05/10 04:01:58;;;;;;;32.38;19.70;;;;;;;;;;5010910;28;93972;-72
2022/05/10 04:04:28;;;;;;;36.72;20.35;;;;;;;;;;5011596;28;92444;-72
2022/05/10 04:06:55;;;;;;;31.75;19.60;;;;;;;;;;5013087;28;92654;-73
2022/05/10 04:09:21;;;;;;;37.95;19.58;;;;;;;;;;5012211;28;92054;-72
2022/05/10 04:11:47;;;;;;;31.63;19.17;;;;;;;;;;5013177;28;94285;-73
2022/05/10 04:14:13;;;;;;;32.03;19.17;;;;;;;;;;5012100;28;93402;-72
2022/05/10 04:16:40;;;;;;;33.63;19.55;;;;;;;;;;5014073;28;95006;-72
2022/05/10 04:19:06;;;;;;;40.10;19.33;;;;;;;;;;5011481;28;93022;-72
2022/05/10 04:21:32;;;;;;;36.10;20.13;;;;;;;;;;5014195;28;93217;-72
2022/05/10 04:23:59;;;;;;;38.60;19.50;;;;;;;;;;5012181;28;93499;-72
2022/05/10 04:26:25;;;;;;;38.20;18.92;;;;;;;;;;5009744;28;92519;-73
2022/05/10 04:28:52;;;;;;;31.73;19.15;;;;;;;;;;5011747;28;93626;-72
2022/05/10 04:31:18;;;;;;;34.40;18.98;;;;;;;;;;5010271;28;93489;-73
2022/05/10 04:33:44;;;;;;;37.10;19.63;;;;;;;;;;5011817;28;91784;-72
2022/05/10 04:36:10;;;;;;;36.17;19.60;;;;;;;;;;5012681;28;92533;-72
2022/05/10 04:38:44;;;;;;;33.70;18.85;;;;;;;;;;5014933;28;92441;-73
2022/05/10 04:41:27;;;;;;;32.88;19.02;;;;;;;;;;5010130;28;94778;-72
2022/05/10 04:43:54;;;;;;;39.38;19.42;;;;;;;;;;5011512;28;94171;-72
2022/05/10 04:46:20;;;;;;;35.53;20.52;;;;;;;;;;5013054;28;92492;-72
2022/05/10 04:48:47;;;;;;;37.83;19.77;;;;;;;;;;5009814;28;95803;-72
2022/05/10 04:51:13;;;;;;;36.08;19.77;;;;;;;;;;5014099;28;92600;-72
2022/05/10 04:53:39;;;;;;;35.58;18.98;;;;;;;;;;5011455;28;92484;-72
2022/05/10 04:56:06;;;;;;;47.40;19.90;;;;;;;;;;5012325;28;93111;-71
2022/05/10 04:58:33;;;;;;;34.55;19.15;;;;;;;;;;5014991;28;92522;-72
2022/05/10 05:01:05;;;;;;;41.53;19.13;;;;;;;;;;5011864;28;92608;-72
2022/05/10 05:03:31;;;;;;;40.75;19.73;;;;;;;;;;5011396;28;96443;-72
2022/05/10 05:05:57;;;;;;;39.45;19.20;;;;;;;;;;5010553;28;94881;-72
2022/05/10 05:08:25;;;;;;;38.63;20.20;;;;;;;;;;5008908;28;94090;-72
2022/05/10 05:10:52;;;;;;;29.25;18.25;;;;;;;;;;4993638;28;93966;-72
2022/05/10 05:13:19;;;;;;;38.67;19.45;;;;;;;;;;5010247;28;93142;-72
2022/05/10 05:15:45;;;;;;;29.55;18.60;;;;;;;;;;5011234;28;93467;-73
2022/05/10 05:18:12;;;;;;;36.80;19.30;;;;;;;;;;5008980;28;93867;-72
2022/05/10 05:20:40;;;;;;;33.53;19.00;;;;;;;;;;5013978;28;92531;-72
2022/05/10 05:23:08;;;;;;;40.67;19.65;;;;;;;;;;5010077;28;93364;-72
2022/05/10 05:25:36;;;;;;;42.22;18.88;;;;;;;;;;5011822;28;92546;-71
2022/05/10 05:28:02;;;;;;;42.58;19.13;;;;;;;;;;5010852;28;93096;-72
2022/05/10 05:30:29;;;;;;;35.83;18.75;;;;;;;;;;5011908;28;95940;-72
2022/05/10 05:32:55;;;;;;;33.75;18.30;;;;;;;;;;5013620;28;92562;-72
2022/05/10 05:35:21;;;;;;;32.47;17.20;;;;;;;;;;4995681;28;93197;-72
2022/05/10 05:37:48;;;;;;;38.88;17.45;;;;;;;;;;5012431;28;93581;-72
2022/05/10 05:40:15;;;;;;;31.08;16.85;;;;;;;;;;5012339;28;92515;-72
2022/05/10 05:42:45;;;;;;;31.00;17.70;;;;;;;;;;5018076;28;93173;-72
2022/05/10 05:45:13;;;;;;;33.47;16.73;;;;;;;;;;5014211;28;92509;-72
2022/05/10 05:47:40;;;;;;;52.50;17.45;;;;;;;;;;5013879;28;93358;-72
2022/05/10 05:50:07;;;;;;;31.27;18.35;;;;;;;;;;5014586;28;93876;-72
2022/05/10 05:52:34;;;;;;;31.75;17.67;;;;;;;;;;5015157;28;92474;-72
2022/05/10 05:55:01;;;;;;;42.72;16.30;;;;;;;;;;5013200;28;94885;-72
2022/05/10 05:57:28;;;;;;;36.80;16.90;;;;;;;;;;5015618;28;94144;-72
2022/05/10 05:59:55;;;;;;;30.35;15.68;;;;;;;;;;5014487;28;92526;-73
2022/05/10 06:02:22;;;;;;;32.55;16.83;;;;;;;;;;5014281;28;93246;-72
2022/05/10 06:04:48;;;;;;;30.13;15.57;;;;;;;;;;5014217;28;93632;-72
2022/05/10 06:07:15;;;;;;;34.10;16.23;;;;;;;;;;5014369;28;93350;-72
2022/05/10 06:09:42;;;;;;;31.10;16.30;;;;;;;;;;5013604;28;94626;-73
2022/05/10 06:12:09;;;;;;;29.27;16.35;;;;;;;;;;5013065;28;92046;-72
2022/05/10 06:14:35;;;;;;;32.70;16.38;;;;;;;;;;5011159;28;92628;-72
2022/05/10 06:17:07;;;;;;;34.05;16.10;;;;;;;;;;5012509;28;94089;-72
2022/05/10 06:19:36;;;;;;;29.17;15.43;;;;;;;;;;5006569;28;95003;-73
2022/05/10 06:22:02;;;;;;;36.67;15.63;;;;;;;;;;4994999;28;95603;-78
2022/05/10 06:24:31;;;;;;;35.85;16.38;;;;;;;;;;5014614;28;93556;-76
2022/05/10 06:26:57;;;;;;;30.17;15.77;;;;;;;;;;5017594;28;92405;-76
2022/05/10 06:29:24;;;;;;;29.52;16.10;;;;;;;;;;5014924;28;93606;-76
2022/05/10 06:31:50;;;;;;;31.33;14.77;;;;;;;;;;5012724;28;92754;-73
2022/05/10 06:34:17;;;;;;;31.83;16.40;;;;;;;;;;5014173;28;93233;-73
2022/05/10 06:36:44;;;;;;;32.42;16.00;;;;;;;;;;5015109;28;93750;-72
2022/05/10 06:39:10;;;;;;;27.17;15.25;;;;;;;;;;5013529;28;92528;-75
2022/05/10 06:41:37;;;;;;;28.67;14.85;;;;;;;;;;5007597;28;93481;-73
2022/05/10 06:44:03;;;;;;;28.52;15.07;;;;;;;;;;5012740;28;95781;-72
2022/05/10 06:46:32;;;;;;;26.58;14.20;;;;;;;;;;5015714;28;92509;-72
2022/05/10 06:49:02;;;;;;;33.28;14.65;;;;;;;;;;5018484;28;93336;-72
2022/05/10 06:51:28;;;;;;;23.98;13.75;;;;;;;;;;5013951;28;93369;-73
2022/05/10 06:53:55;;;;;;;28.48;13.48;;;;;;;;;;5014585;28;93273;-72
2022/05/10 06:56:21;;;;;;;32.00;15.52;;;;;;;;;;5012760;28;93320;-73
2022/05/10 06:58:48;;;;;;;23.27;13.80;;;;;;;;;;5014974;28;92876;-72
2022/05/10 07:01:14;;;;;;;26.02;14.15;;;;;;;;;;5015934;28;93123;-72
2022/05/10 07:03:43;;;;;;;28.98;13.85;;;;;;;;;;5014849;28;93520;-74
2022/05/10 07:06:10;;;;;;;32.00;13.95;;;;;;;;;;5013985;28;92426;-73
2022/05/10 07:08:37;;;;;;;22.85;12.60;;;;;;;;;;5016507;28;94851;-73
2022/05/10 07:11:03;;;;;;;32.03;14.23;;;;;;;;;;5013638;28;92514;-72
2022/05/10 07:13:30;;;;;;;27.40;13.85;;;;;;;;;;5015462;28;92919;-72
2022/05/10 07:15:57;;;;;;;28.38;13.50;;;;;;;;;;5013023;28;93489;-73
2022/05/10 07:18:24;;;;;;;28.13;13.63;;;;;;;;;;5015797;28;92509;-73
2022/05/10 07:20:51;;;;;;;30.48;12.98;;;;;;;;;;5014002;28;93143;-73
2022/05/10 07:23:29;;;;;;;33.83;12.98;;;;;;;;;;5014785;28;93355;-72
2022/05/10 07:26:02;;;;;;;18.40;11.98;;;;;;;;;;5014822;28;91670;-71
2022/05/10 07:28:29;;;;;;;20.42;12.98;;;;;;;;;;5015177;28;92494;-72
2022/05/10 07:30:58;;;;;;;22.88;12.82;;;;;;;;;;5013094;28;94428;-73
2022/05/10 07:33:26;;;;;;;23.55;13.00;;;;;;;;;;5011194;28;94884;-73
2022/05/10 07:38:38;;;;;;;24.67;12.77;;;;;;;;;;5005062;28;92521;-69
2022/05/10 07:41:04;;;;;;;21.80;13.07;;;;;;;;;;5013761;28;93216;-70
2022/05/10 07:43:33;;;;;;;33.22;13.02;;;;;;;;;;5012604;28;93430;-72
2022/05/10 07:45:59;;;;;;;23.20;12.63;;;;;;;;;;5014371;28;92474;-70
2022/05/10 07:48:25;;;;;;;22.48;11.85;;;;;;;;;;5014896;28;94675;-72
2022/05/10 07:50:52;;;;;;;19.88;12.38;;;;;;;;;;5014496;28;93028;-72
2022/05/10 07:53:18;;;;;;;18.50;12.27;;;;;;;;;;5015367;28;92399;-75
2022/05/10 07:55:45;;;;;;;26.40;13.57;;;;;;;;;;5007363;28;93051;-73
2022/05/10 07:58:12;;;;;;;18.80;11.98;;;;;;;;;;5009954;28;96544;-72
2022/05/10 08:00:39;;;;;;;23.83;13.52;;;;;;;;;;5009749;28;95952;-72
2022/05/10 08:03:10;;;;;;;26.27;13.38;;;;;;;;;;5002350;28;93321;-74
2022/05/10 08:05:37;;;;;;;21.80;12.00;;;;;;;;;;4994150;28;92764;-72
2022/05/10 08:08:04;;;;;;;24.92;12.50;;;;;;;;;;5001328;28;93511;-73
2022/05/10 08:10:30;;;;;;;19.58;12.07;;;;;;;;;;5008022;28;93657;-72
2022/05/10 08:12:57;;;;;;;22.75;12.90;;;;;;;;;;5012006;28;92610;-73
2022/05/10 08:15:23;;;;;;;25.75;11.45;;;;;;;;;;5017575;28;93248;-74
2022/05/10 08:17:49;;;;;;;25.88;10.95;;;;;;;;;;5011403;28;92458;-72
2022/05/10 08:20:16;;;;;;;16.98;11.50;;;;;;;;;;5013758;28;93264;-71
2022/05/10 08:22:42;;;;;;;18.70;11.85;;;;;;;;;;4991848;28;97854;-72
2022/05/10 08:25:10;;;;;;;21.00;11.80;;;;;;;;;;5012815;28;92403;-72
2022/05/10 08:27:36;;;;;;;27.02;11.18;;;;;;;;;;5013523;28;93174;-72
2022/05/10 08:30:03;;;;;;;16.58;10.05;;;;;;;;;;5014063;28;93670;-73
2022/05/10 08:32:29;;;;;;;20.40;10.27;;;;;;;;;;5013456;28;92413;-72
2022/05/10 08:34:55;;;;;;;18.08;10.60;;;;;;;;;;5013114;28;93052;-72
2022/05/10 08:37:22;;;;;;;19.77;9.98;;;;;;;;;;5016501;28;93765;-72
2022/05/10 08:39:48;;;;;;;18.67;9.70;;;;;;;;;;5014846;28;93061;-73
2022/05/10 08:42:25;;;;;;;15.52;8.90;;;;;;;;;;5011283;28;93394;-72
2022/05/10 08:44:54;;;;;;;15.32;8.77;;;;;;;;;;5014192;28;92462;-75
2022/05/10 08:47:20;;;;;;;21.83;8.95;;;;;;;;;;5011017;28;94904;-74
2022/05/10 08:49:53;;;;;;;18.38;9.05;;;;;;;;;;5010270;28;93294;-72
2022/05/10 08:52:21;;;;;;;15.00;9.00;;;;;;;;;;5001591;28;92443;-72
2022/05/10 08:54:47;;;;;;;10.40;8.25;;;;;;;;;;5013721;28;93363;-72
2022/05/10 08:57:16;;;;;;;13.70;8.70;;;;;;;;;;5012706;28;94881;-72
2022/05/10 08:59:45;;;;;;;13.55;8.52;;;;;;;;;;5017995;28;92528;-72
2022/05/10 09:02:16;;;;;;;11.03;8.43;;;;;;;;;;5013236;28;93406;-72
2022/05/10 09:04:48;;;;;;;21.95;8.38;;;;;;;;;;5012382;28;91877;-71
2022/05/10 09:07:17;;;;;;;12.68;7.95;;;;;;;;;;5011464;28;93298;-71
2022/05/10 09:09:49;;;;;;;11.98;7.85;;;;;;;;;;4984433;28;93287;-74
2022/05/10 09:12:22;;;;;;;12.73;7.45;;;;;;;;;;5009450;28;95354;-74
2022/05/10 09:14:52;;;;;;;17.40;7.35;;;;;;;;;;5010144;28;95826;-75
2022/05/10 09:17:19;;;;;;;11.45;7.40;;;;;;;;;;5013528;28;93460;-75
2022/05/10 09:19:45;;;;;;;14.95;8.18;;;;;;;;;;5015444;28;92649;-74
2022/05/10 09:22:57;;;;;;;14.93;7.07;;;;;;;;;;5013742;28;92998;-74
2022/05/10 09:25:34;;;;;;;20.95;7.68;;;;;;;;;;5012175;28;92450;-74
2022/05/10 09:28:13;;;;;;;10.88;6.97;;;;;;;;;;5012320;28;94246;-73
2022/05/10 09:30:39;;;;;;;20.20;7.35;;;;;;;;;;5007929;28;92788;-73
2022/05/10 09:36:02;;;;;;;19.70;7.38;;;;;;;;;;5010899;28;93201;-75
2022/05/10 09:38:30;;;;;;;11.90;6.60;;;;;;;;;;5010709;28;95789;-75
2022/05/10 09:40:56;;;;;;;16.60;6.97;;;;;;;;;;5011239;28;92556;-75
2022/05/10 09:43:27;;;;;;;17.20;6.57;;;;;;;;;;5007031;28;93470;-75
2022/05/10 09:46:09;;;;;;;11.30;6.50;;;;;;;;;;5012386;28;92480;-75
2022/05/10 09:48:36;;;;;;;16.35;6.18;;;;;;;;;;5013665;28;92369;-75
2022/05/10 09:51:21;;;;;;;17.13;6.40;;;;;;;;;;5013080;28;93192;-74
2022/05/10 09:53:47;;;;;;;19.10;6.10;;;;;;;;;;5010856;28;92470;-75
2022/05/10 09:56:27;;;;;;;14.98;5.30;;;;;;;;;;5011550;28;93790;-75
2022/05/10 09:58:54;;;;;;;15.02;5.20;;;;;;;;;;5012220;28;93304;-75
2022/05/10 10:01:40;;;;;;;14.55;6.25;;;;;;;;;;5011044;28;92479;-75
2022/05/10 10:04:25;;;;;;;24.10;5.72;;;;;;;;;;5002159;28;95055;-75
2022/05/10 10:07:05;;;;;;;15.43;5.50;;;;;;;;;;5007669;28;93740;-75
2022/05/10 10:09:33;;;;;;;12.05;5.30;;;;;;;;;;5009103;28;93346;-75
2022/05/10 10:12:01;;;;;;;26.48;6.45;;;;;;;;;;5010220;28;93582;-75
2022/05/10 10:14:53;;;;;;;13.80;5.18;;;;;;;;;;5010382;28;92574;-74
2022/05/10 10:17:22;;;;;;;22.35;6.93;;;;;;;;;;5003141;28;93636;-74
2022/05/10 10:19:51;;;;;;;21.83;5.60;;;;;;;;;;5008073;28;93898;-74
2022/05/10 10:22:17;;;;;;;10.95;5.40;;;;;;;;;;4994992;28;91788;-74
2022/05/10 10:24:49;;;;;;;19.80;5.45;;;;;;;;;;5016004;28;92449;-74
2022/05/10 10:27:19;;;;;;;18.70;4.45;;;;;;;;;;5014250;28;93546;-75
2022/05/10 10:50:48;;;;;;;20.23;6.30;;;;;;;;;;5058795;27;86276;-69
2022/05/10 10:53:14;;;;;;;8.57;5.75;;;;;;;;;;5055624;27;86688;-69
2022/05/10 10:55:44;;;;;;;15.27;5.57;;;;;;;;;;5054191;27;88281;-69
2022/05/10 10:58:16;;;;;;;9.43;5.38;;;;;;;;;;5052194;27;87149;-72
2022/05/10 11:00:54;;;;;;;12.10;5.20;;;;;;;;;;5055003;27;88588;-71
2022/05/10 11:03:28;;;;;;;13.52;4.88;;;;;;;;;;5055301;27;87597;-70
2022/05/10 11:06:13;;;;;;;13.38;4.50;;;;;;;;;;5049796;27;87588;-71
2022/05/10 11:08:39;;;;;;;13.93;3.95;;;;;;;;;;5053430;27;88040;-69
2022/05/10 11:11:11;;;;;;;22.35;4.45;;;;;;;;;;5058318;27;87276;-71
2022/05/10 11:13:58;;;;;;;17.50;4.15;;;;;;;;;;5054191;27;87731;-70
2022/05/10 11:16:27;;;;;;;17.75;4.00;;;;;;;;;;5051238;27;87169;-72
2022/05/10 11:19:04;;;;;;;6.63;3.95;;;;;;;;;;5047607;27;87587;-70
2022/05/10 11:21:46;;;;;;;15.65;3.90;;;;;;;;;;5034884;27;87648;-69
2022/05/10 11:24:24;;;;;;;14.80;3.60;;;;;;;;;;5053894;27;87127;-70
2022/05/10 11:27:02;;;;;;;8.10;3.30;;;;;;;;;;5048770;27;88483;-71
2022/05/10 11:29:35;;;;;;;11.38;3.65;;;;;;;;;;5034653;27;88947;-71
2022/05/10 11:32:24;;;;;;;10.25;3.70;;;;;;;;;;5034538;27;88216;-72
2022/05/10 11:34:53;;;;;;;8.57;3.42;;;;;;;;;;5038793;27;88672;-72
2022/05/10 11:37:42;;;;;;;12.30;3.80;;;;;;;;;;5053931;27;87006;-71
2022/05/10 11:40:09;;;;;;;11.57;3.30;;;;;;;;;;5037982;27;87740;-71
2022/05/10 11:42:44;;;;;;;14.52;4.43;;;;;;;;;;5034504;27;88961;-71
2022/05/10 11:45:11;;;;;;;12.75;3.60;;;;;;;;;;5038289;27;87337;-72
2022/05/10 11:47:55;;;;;;;11.13;4.07;;;;;;;;;;5055216;27;88412;-72
2022/05/10 11:50:34;;;;;;;6.15;3.72;;;;;;;;;;5051740;27;87977;-72
2022/05/10 11:53:01;;;;;;;11.00;3.90;;;;;;;;;;5053002;27;88345;-72
2022/05/10 11:55:31;;;;;;;24.45;4.30;;;;;;;;;;5045272;27;87665;-72
2022/05/10 11:57:58;;;;;;;19.48;4.03;;;;;;;;;;5041743;27;88108;-72
2022/05/10 12:00:31;;;;;;;16.05;4.13;;;;;;;;;;5030666;27;87675;-71
2022/05/10 12:02:58;;;;;;;8.68;3.78;;;;;;;;;;5020481;28;87669;-71
2022/05/10 12:05:31;;;;;;;11.45;4.18;;;;;;;;;;5021738;28;87288;-71
2022/05/10 12:08:01;;;;;;;18.85;4.28;;;;;;;;;;5035120;28;87287;-71
2022/05/10 12:10:43;;;;;;;19.30;4.63;;;;;;;;;;5039795;27;88069;-71
2022/05/10 12:22:07;;;;;;;22.42;4.50;;;;;;;;;;4980801;28;87330;-71
2022/05/10 12:24:44;;;;;;;24.88;5.40;;;;;;;;;;4969782;28;90804;-72
2022/05/10 12:27:11;;;;;;;18.17;4.30;;;;;;;;;;4958940;28;88427;-71
2022/05/10 12:29:37;;;;;;;18.20;5.35;;;;;;;;;;4972696;28;87743;-71
2022/05/10 12:32:06;;;;;;;7.60;4.18;;;;;;;;;;4966276;28;88950;-72
2022/05/10 12:34:49;;;;;;;14.75;4.97;;;;;;;;;;4975081;28;86778;-73
2022/05/10 12:37:26;;;;;;;17.08;4.63;;;;;;;;;;4978525;28;87397;-72
2022/05/10 12:39:56;;;;;;;13.50;4.85;;;;;;;;;;4972762;28;88045;-72
2022/05/10 12:42:22;;;;;;;;;;;;;;;;;;4969875;28;88184;-72
2022/05/10 12:44:55;;;;;;;18.40;5.53;;;;;;;;;;4967635;28;118522;-72
2022/05/10 12:47:48;;;;;;;8.88;4.85;;;;;;;;;;4973548;28;87361;-71
2022/05/10 12:50:14;;;;;;;13.50;4.78;;;;;;;;;;4968959;28;87417;-71
2022/05/10 12:52:43;;;;;;;22.50;5.20;;;;;;;;;;5000747;28;87674;-70
2022/05/10 12:55:15;;;;;;;18.13;5.28;;;;;;;;;;5028832;27;86995;-72
2022/05/10 12:57:45;;;;;;;14.50;4.90;;;;;;;;;;5037551;27;87318;-72
2022/05/10 13:00:12;;;;;;;;;;;;;;;;;;5023516;27;87972;-71
2022/05/10 13:02:40;;;;;;;18.77;5.55;;;;;;;;;;5020416;28;118215;-71
2022/05/10 13:05:08;;;;;;;17.52;6.22;;;;;;;;;;5021422;28;87504;-70
2022/05/10 13:08:01;;;;;;;12.88;6.53;;;;;;;;;;5042917;27;86967;-70
2022/05/10 13:10:28;;;;;;;14.10;5.80;;;;;;;;;;5019213;27;87317;-71
2022/05/10 13:12:59;;;;;;;14.68;6.85;;;;;;;;;;5018358;28;87881;-71
2022/05/10 13:15:26;;;;;;;13.73;5.55;;;;;;;;;;5028017;27;88695;-71
2022/05/10 13:17:54;;;;;;;11.82;6.35;;;;;;;;;;5039860;27;88386;-70
2022/05/10 13:20:23;;;;;;;18.55;5.88;;;;;;;;;;5037130;27;87989;-71
2022/05/10 13:22:53;;;;;;;20.88;6.50;;;;;;;;;;5039884;27;87174;-71
2022/05/10 13:25:26;;;;;;;9.55;5.97;;;;;;;;;;5030072;27;87525;-71
2022/05/10 13:28:04;;;;;;;12.60;5.53;;;;;;;;;;5041549;27;87800;-71
2022/05/10 13:30:30;;;;;;;11.40;5.60;;;;;;;;;;5024493;27;87731;-71
2022/05/10 13:32:58;;;;;;;9.43;6.00;;;;;;;;;;5019313;28;87897;-71
2022/05/10 13:35:27;;;;;;;14.20;6.78;;;;;;;;;;5019918;27;87292;-71
2022/05/10 13:37:56;;;;;;;20.92;6.80;;;;;;;;;;5019320;28;87584;-70
2022/05/10 13:40:24;;;;;;;12.68;6.00;;;;;;;;;;5019085;28;87634;-71
2022/05/10 13:42:51;;;;;;;22.27;6.63;;;;;;;;;;5019181;28;87106;-70
2022/05/10 13:45:22;;;;;;;17.83;5.07;;;;;;;;;;5021276;27;87483;-73
2022/05/10 13:47:50;;;;;;;13.60;6.20;;;;;;;;;;5039723;27;87762;-70
2022/05/10 13:50:24;;;;;;;10.80;5.32;;;;;;;;;;5029400;27;87033;-69
2022/05/10 13:52:56;;;;;;;23.45;6.05;;;;;;;;;;5021383;28;88038;-70
2022/05/10 13:55:23;;;;;;;15.68;5.68;;;;;;;;;;5025811;28;87156;-70
2022/05/10 13:57:53;;;;;;;10.55;5.75;;;;;;;;;;5039345;27;87321;-71
2022/05/10 14:00:20;;;;;;;15.60;6.22;;;;;;;;;;5037197;27;86708;-70
2022/05/10 14:02:50;;;;;;;8.77;5.05;;;;;;;;;;5024084;28;87146;-71
2022/05/10 14:05:18;;;;;;;16.42;4.82;;;;;;;;;;5023080;28;87548;-71
2022/05/10 14:07:48;;;;;;;13.07;5.38;;;;;;;;;;5018842;28;87928;-72
2022/05/10 14:10:15;;;;;;;12.98;5.50;;;;;;;;;;5018891;28;87224;-72
2022/05/10 14:12:50;;;;;;;14.60;5.30;;;;;;;;;;5022846;28;87310;-72
2022/05/10 14:15:16;;;;;;;11.88;4.82;;;;;;;;;;5023320;27;87468;-72
2022/05/10 14:17:47;;;;;;;22.33;5.40;;;;;;;;;;5038939;27;87303;-71
2022/05/10 14:20:27;;;;;;;11.27;4.97;;;;;;;;;;5037509;27;87941;-71
2022/05/10 14:22:55;;;;;;;12.45;4.88;;;;;;;;;;5035443;28;87419;-71
2022/05/10 14:25:23;;;;;;;8.82;4.32;;;;;;;;;;5037396;27;87405;-71
2022/05/10 14:27:59;;;;;;;7.45;4.18;;;;;;;;;;5023950;27;88185;-71
2022/05/10 14:30:27;;;;;;;13.63;3.30;;;;;;;;;;5038670;27;87312;-71
2022/05/10 14:32:53;;;;;;;16.48;4.32;;;;;;;;;;5019072;27;87317;-70
2022/05/10 14:35:30;;;;;;;11.82;3.60;;;;;;;;;;5022065;28;87729;-71
2022/05/10 14:37:58;;;;;;;12.27;4.15;;;;;;;;;;5035621;27;87478;-71
2022/05/10 14:40:35;;;;;;;9.50;3.50;;;;;;;;;;5018603;28;87526;-71
2022/05/10 14:43:05;;;;;;;4.70;3.15;;;;;;;;;;5021636;28;89411;-71
2022/05/10 14:45:42;;;;;;;8.27;3.10;;;;;;;;;;5038869;27;87525;-71
2022/05/10 14:48:28;;;;;;;6.38;2.95;;;;;;;;;;5039123;27;87914;-71
2022/05/10 14:50:57;;;;;;;14.77;3.80;;;;;;;;;;5037827;28;88632;-71
2022/05/10 14:53:25;;;;;;;8.25;2.58;;;;;;;;;;5029954;27;88402;-70
2022/05/10 14:55:53;;;;;;;13.38;2.65;;;;;;;;;;5018039;28;87735;-69
2022/05/10 14:58:27;;;;;;;11.52;2.53;;;;;;;;;;5021296;28;88344;-71
2022/05/10 15:01:01;;;;;;;6.05;2.60;;;;;;;;;;5018377;28;87715;-71
2022/05/10 15:03:27;;;;;;;5.53;2.30;;;;;;;;;;5015897;28;87244;-71
2022/05/10 15:05:55;;;;;;;5.82;2.33;;;;;;;;;;5017437;28;90146;-71
2022/05/10 15:08:21;;;;;;;7.10;2.03;;;;;;;;;;5017731;28;89015;-71
2022/05/10 15:10:52;;;;;;;8.77;1.60;;;;;;;;;;5017314;28;87999;-71
2022/05/10 15:13:18;;;;;;;8.00;1.75;;;;;;;;;;5018920;27;88783;-71
2022/05/10 15:15:44;;;;;;;10.75;1.95;;;;;;;;;;5032137;27;88915;-71
2022/05/10 15:20:56;;;;;;;6.18;1.65;;;;;;;;;;5017302;27;88066;-71
2022/05/10 15:23:22;;;;;;;7.47;1.20;;;;;;;;;;5021733;28;88778;-70